Time;durP1;ratioP1;P1;durP2;ratioP2;P2;SDS_P1;SDS_P2;PMS_P1;PMS_P2;Temp;Humidity;BMP_temperature;BMP_pressure;BME280_temperature;BME280_humidity;BME280_pressure;Samples;Min_cycle;Max_cycle;Signal;HPM_P1;HPM_P2
2021/05/04 00:00:09;;;;;;;3.43;2.63;;;;;;;;;;5089626;28;20188;-62
2021/05/04 00:02:35;;;;;;;2.73;2.53;;;;;;;;;;5090454;28;20170;-63
2021/05/04 00:05:01;;;;;;;3.93;3.07;;;;;;;;;;5072699;28;20635;-60
2021/05/04 00:07:27;;;;;;;3.70;2.40;;;;;;;;;;5060946;28;20176;-63
2021/05/04 00:09:53;;;;;;;4.13;2.60;;;;;;;;;;5088634;28;20180;-63
2021/05/04 00:12:19;;;;;;;4.73;2.47;;;;;;;;;;5084342;28;20180;-62
2021/05/04 00:14:45;;;;;;;4.00;2.67;;;;;;;;;;5090221;28;20180;-62
2021/05/04 00:17:11;;;;;;;3.47;3.03;;;;;;;;;;5090836;28;20284;-63
2021/05/04 00:19:39;;;;;;;3.03;2.50;;;;;;;;;;5091193;28;20573;-62
2021/05/04 00:22:05;;;;;;;2.23;2.03;;;;;;;;;;5090009;28;20275;-62
2021/05/04 00:24:31;;;;;;;5.57;3.03;;;;;;;;;;5088748;28;20190;-63
2021/05/04 00:26:57;;;;;;;2.20;2.00;;;;;;;;;;5089247;28;20232;-62
2021/05/04 00:29:23;;;;;;;3.00;2.47;;;;;;;;;;5083646;28;20199;-62
2021/05/04 00:31:49;;;;;;;4.57;2.90;;;;;;;;;;5063107;28;20187;-62
2021/05/04 00:34:15;;;;;;;3.77;2.07;;;;;;;;;;5090793;28;20216;-62
2021/05/04 00:36:41;;;;;;;2.40;2.20;;;;;;;;;;5071630;28;20180;-62
2021/05/04 00:39:08;;;;;;;2.17;1.97;;;;;;;;;;5091208;28;20224;-62
2021/05/04 00:41:34;;;;;;;2.37;2.00;;;;;;;;;;5088958;28;20176;-62
2021/05/04 00:44:00;;;;;;;2.27;2.07;;;;;;;;;;5088793;28;20229;-62
2021/05/04 00:46:26;;;;;;;2.30;2.10;;;;;;;;;;5090429;28;20172;-62
2021/05/04 00:48:52;;;;;;;2.50;2.00;;;;;;;;;;5091121;28;20262;-63
2021/05/04 00:51:20;;;;;;;2.60;2.33;;;;;;;;;;5089641;28;20207;-62
2021/05/04 00:53:46;;;;;;;2.00;1.80;;;;;;;;;;5091381;28;20187;-62
2021/05/04 00:56:13;;;;;;;2.90;2.20;;;;;;;;;;5066474;28;20181;-64
2021/05/04 00:58:40;;;;;;;4.40;1.90;;;;;;;;;;5087629;28;20248;-62
2021/05/04 01:01:06;;;;;;;2.67;2.23;;;;;;;;;;5071000;28;20184;-62
2021/05/04 01:03:32;;;;;;;2.40;2.13;;;;;;;;;;5090642;28;20168;-62
2021/05/04 01:05:58;;;;;;;2.83;2.03;;;;;;;;;;5090187;28;20211;-62
2021/05/04 01:08:24;;;;;;;3.07;1.67;;;;;;;;;;5087787;28;20225;-62
2021/05/04 01:10:50;;;;;;;3.23;2.03;;;;;;;;;;5084180;28;20587;-62
2021/05/04 01:13:16;;;;;;;1.83;1.70;;;;;;;;;;5090444;28;20229;-62
2021/05/04 01:15:43;;;;;;;2.17;1.97;;;;;;;;;;5086384;28;20202;-62
2021/05/04 01:18:09;;;;;;;2.27;2.07;;;;;;;;;;5063090;28;20191;-63
2021/05/04 01:20:37;;;;;;;1.80;1.70;;;;;;;;;;5078416;28;20200;-62
2021/05/04 01:23:03;;;;;;;2.60;1.63;;;;;;;;;;5072422;28;20191;-61
2021/05/04 01:25:29;;;;;;;3.47;1.80;;;;;;;;;;5089216;28;20207;-62
2021/05/04 01:27:55;;;;;;;2.00;1.80;;;;;;;;;;5088963;28;20172;-63
2021/05/04 01:30:21;;;;;;;2.37;1.70;;;;;;;;;;5082949;28;20200;-63
2021/05/04 01:32:47;;;;;;;4.93;2.10;;;;;;;;;;5065525;28;20195;-62
2021/05/04 01:35:14;;;;;;;2.10;1.70;;;;;;;;;;5072005;28;20220;-62
2021/05/04 01:37:40;;;;;;;2.17;1.80;;;;;;;;;;5083623;28;20210;-62
2021/05/04 01:40:07;;;;;;;1.63;1.53;;;;;;;;;;5070741;28;20314;-63
2021/05/04 01:42:33;;;;;;;1.73;1.60;;;;;;;;;;5089799;28;20179;-63
2021/05/04 01:44:59;;;;;;;2.30;1.53;;;;;;;;;;5089825;28;20207;-62
2021/05/04 01:47:26;;;;;;;2.23;1.50;;;;;;;;;;5086594;28;20181;-62
2021/05/04 01:49:52;;;;;;;2.10;1.40;;;;;;;;;;5078885;28;20255;-62
2021/05/04 01:52:18;;;;;;;3.17;1.40;;;;;;;;;;5091575;28;20198;-63
2021/05/04 01:54:44;;;;;;;3.33;1.83;;;;;;;;;;5092215;28;20188;-62
2021/05/04 01:57:10;;;;;;;4.43;1.40;;;;;;;;;;5094374;28;20179;-62
2021/05/04 01:59:36;;;;;;;4.80;1.47;;;;;;;;;;5091694;28;20668;-62
2021/05/04 02:02:02;;;;;;;7.20;2.10;;;;;;;;;;5092711;28;20222;-62
2021/05/04 02:04:32;;;;;;;6.10;2.13;;;;;;;;;;5080022;28;20250;-62
2021/05/04 02:06:59;;;;;;;2.40;1.90;;;;;;;;;;5075054;28;20704;-62
2021/05/04 02:09:25;;;;;;;3.20;1.37;;;;;;;;;;5092638;28;20184;-65
2021/05/04 02:11:51;;;;;;;2.17;1.37;;;;;;;;;;5093496;28;20180;-62
2021/05/04 02:14:17;;;;;;;3.63;1.63;;;;;;;;;;5083168;28;20188;-62
2021/05/04 02:16:46;;;;;;;2.63;1.33;;;;;;;;;;5089268;28;20255;-61
2021/05/04 02:19:12;;;;;;;3.73;1.30;;;;;;;;;;5092966;28;20202;-61
2021/05/04 02:21:38;;;;;;;1.77;1.60;;;;;;;;;;5062438;28;20180;-62
2021/05/04 02:24:04;;;;;;;1.47;1.37;;;;;;;;;;5075527;28;20279;-63
2021/05/04 02:26:30;;;;;;;4.03;1.63;;;;;;;;;;5075006;28;20182;-62
2021/05/04 02:28:56;;;;;;;6.27;1.60;;;;;;;;;;5092528;28;20183;-62
2021/05/04 02:31:22;;;;;;;3.40;1.80;;;;;;;;;;5088050;28;21197;-63
2021/05/04 02:33:48;;;;;;;1.60;1.50;;;;;;;;;;5066570;28;20194;-62
2021/05/04 02:36:14;;;;;;;1.40;1.23;;;;;;;;;;5052129;28;20229;-64
2021/05/04 02:38:40;;;;;;;2.00;1.40;;;;;;;;;;5062868;28;20184;-62
2021/05/04 02:41:07;;;;;;;10.30;1.53;;;;;;;;;;5071121;28;20180;-62
2021/05/04 02:43:34;;;;;;;1.67;1.57;;;;;;;;;;5049352;28;20655;-63
2021/05/04 02:46:00;;;;;;;2.00;1.27;;;;;;;;;;5073209;28;20631;-63
2021/05/04 02:48:26;;;;;;;2.60;1.20;;;;;;;;;;5065662;28;20184;-63
2021/05/04 02:50:52;;;;;;;2.53;1.30;;;;;;;;;;5066365;28;20207;-63
2021/05/04 02:53:18;;;;;;;2.10;1.17;;;;;;;;;;5066362;28;20602;-62
2021/05/04 02:55:44;;;;;;;2.30;1.60;;;;;;;;;;5053329;28;20681;-63
2021/05/04 02:58:11;;;;;;;2.03;1.20;;;;;;;;;;5053868;28;20190;-64
2021/05/04 03:00:38;;;;;;;1.67;1.17;;;;;;;;;;5071602;28;20540;-65
2021/05/04 03:03:04;;;;;;;1.33;1.23;;;;;;;;;;5058618;28;20192;-64
2021/05/04 03:05:30;;;;;;;3.90;1.27;;;;;;;;;;5045922;28;20654;-66
2021/05/04 03:07:56;;;;;;;1.27;1.17;;;;;;;;;;5067004;28;20600;-64
2021/05/04 03:10:22;;;;;;;1.10;1.00;;;;;;;;;;5057136;28;20188;-64
2021/05/04 03:12:48;;;;;;;1.60;1.30;;;;;;;;;;5070197;28;20185;-63
2021/05/04 03:15:14;;;;;;;1.67;1.40;;;;;;;;;;5072273;28;20192;-63
2021/05/04 03:17:40;;;;;;;1.90;1.17;;;;;;;;;;5070223;28;20172;-65
2021/05/04 03:20:07;;;;;;;1.20;1.10;;;;;;;;;;5051313;28;20678;-64
2021/05/04 03:22:33;;;;;;;1.60;1.50;;;;;;;;;;5058468;28;20181;-64
2021/05/04 03:24:59;;;;;;;3.60;1.50;;;;;;;;;;5066498;28;20177;-64
2021/05/04 03:27:25;;;;;;;1.20;1.10;;;;;;;;;;5072151;28;20173;-65
2021/05/04 03:29:51;;;;;;;1.30;1.20;;;;;;;;;;5066809;28;20199;-64
2021/05/04 03:32:17;;;;;;;1.37;1.07;;;;;;;;;;5052275;28;20193;-64
2021/05/04 03:34:43;;;;;;;2.33;1.30;;;;;;;;;;5074756;28;20227;-64
2021/05/04 03:37:09;;;;;;;3.03;1.43;;;;;;;;;;5092243;28;20184;-64
2021/05/04 03:39:35;;;;;;;1.63;1.33;;;;;;;;;;5090383;28;20345;-62
2021/05/04 03:42:01;;;;;;;1.30;1.20;;;;;;;;;;5073683;28;20563;-64
2021/05/04 03:44:27;;;;;;;1.50;1.20;;;;;;;;;;5089357;28;20233;-64
2021/05/04 03:46:53;;;;;;;0.90;0.90;;;;;;;;;;5090397;28;20191;-64
2021/05/04 03:49:19;;;;;;;1.70;1.57;;;;;;;;;;5074135;28;20211;-65
2021/05/04 03:51:45;;;;;;;1.70;1.30;;;;;;;;;;5091729;28;20192;-64
2021/05/04 03:54:11;;;;;;;1.53;1.30;;;;;;;;;;5091600;28;20191;-65
2021/05/04 03:56:38;;;;;;;1.30;1.20;;;;;;;;;;5092693;28;20176;-65
2021/05/04 03:59:04;;;;;;;1.40;1.30;;;;;;;;;;5091262;28;20204;-65
2021/05/04 04:01:31;;;;;;;1.83;1.57;;;;;;;;;;5067767;28;20172;-64
2021/05/04 04:03:57;;;;;;;2.00;1.30;;;;;;;;;;5065405;28;20188;-64
2021/05/04 04:06:23;;;;;;;2.93;1.50;;;;;;;;;;5072280;28;20668;-64
2021/05/04 04:08:50;;;;;;;2.67;1.73;;;;;;;;;;5090306;28;20171;-65
2021/05/04 04:11:16;;;;;;;1.87;1.50;;;;;;;;;;5067791;28;20179;-64
2021/05/04 04:13:42;;;;;;;3.57;1.60;;;;;;;;;;5079959;28;20187;-65
2021/05/04 04:16:08;;;;;;;1.70;1.30;;;;;;;;;;5088636;28;20720;-64
2021/05/04 04:18:34;;;;;;;1.30;1.17;;;;;;;;;;5089385;28;20168;-64
2021/05/04 04:21:00;;;;;;;1.50;1.40;;;;;;;;;;5078982;28;20417;-64
2021/05/04 04:23:26;;;;;;;1.50;1.17;;;;;;;;;;5088365;28;20565;-65
2021/05/04 04:25:52;;;;;;;1.67;1.30;;;;;;;;;;5088533;28;20294;-66
2021/05/04 04:28:19;;;;;;;2.20;1.60;;;;;;;;;;5073629;28;20220;-63
2021/05/04 04:30:45;;;;;;;6.97;1.53;;;;;;;;;;5092650;28;20168;-65
2021/05/04 04:33:11;;;;;;;1.97;1.40;;;;;;;;;;5090331;28;20183;-64
2021/05/04 04:35:37;;;;;;;1.27;1.10;;;;;;;;;;5090122;28;20586;-64
2021/05/04 04:38:03;;;;;;;1.87;1.40;;;;;;;;;;5090631;28;20191;-64
2021/05/04 04:40:29;;;;;;;1.40;1.30;;;;;;;;;;5086147;28;20196;-65
2021/05/04 04:42:55;;;;;;;1.73;1.30;;;;;;;;;;5062775;28;20180;-64
2021/05/04 04:45:21;;;;;;;1.80;1.27;;;;;;;;;;5079816;28;20190;-64
2021/05/04 04:47:47;;;;;;;1.80;1.10;;;;;;;;;;5066213;28;20180;-64
2021/05/04 04:50:13;;;;;;;1.57;1.47;;;;;;;;;;5081674;28;20261;-63
2021/05/04 04:52:39;;;;;;;1.40;1.30;;;;;;;;;;5064699;28;20184;-64
2021/05/04 04:55:06;;;;;;;3.73;1.60;;;;;;;;;;5082210;28;20190;-64
2021/05/04 04:57:32;;;;;;;1.60;1.33;;;;;;;;;;5055593;28;20184;-64
2021/05/04 04:59:58;;;;;;;1.50;1.40;;;;;;;;;;5077048;28;20231;-64
2021/05/04 05:02:24;;;;;;;2.03;1.23;;;;;;;;;;5057841;28;20768;-66
2021/05/04 05:04:51;;;;;;;2.20;1.60;;;;;;;;;;5071380;28;20172;-64
2021/05/04 05:07:17;;;;;;;2.13;1.20;;;;;;;;;;5091228;28;20272;-63
2021/05/04 05:09:45;;;;;;;5.83;1.47;;;;;;;;;;5081918;28;20172;-64
2021/05/04 05:12:11;;;;;;;2.80;1.10;;;;;;;;;;5077642;28;20363;-63
2021/05/04 05:14:39;;;;;;;1.30;1.20;;;;;;;;;;5070259;28;20194;-65
2021/05/04 05:17:05;;;;;;;1.40;1.20;;;;;;;;;;5078081;28;20195;-66
2021/05/04 05:19:31;;;;;;;3.63;1.20;;;;;;;;;;5089087;28;20192;-64
2021/05/04 05:21:58;;;;;;;2.37;1.57;;;;;;;;;;5062213;28;20188;-65
2021/05/04 05:24:24;;;;;;;1.17;1.07;;;;;;;;;;5089755;28;20164;-65
2021/05/04 05:26:51;;;;;;;0.93;0.93;;;;;;;;;;5083057;28;20197;-63
2021/05/04 05:29:17;;;;;;;2.23;1.20;;;;;;;;;;5083953;28;20195;-66
2021/05/04 05:31:43;;;;;;;1.00;0.90;;;;;;;;;;5063615;28;20643;-64
2021/05/04 05:34:10;;;;;;;1.20;1.10;;;;;;;;;;5066633;28;20179;-64
2021/05/04 05:36:36;;;;;;;2.80;1.30;;;;;;;;;;5089695;28;20317;-64
2021/05/04 05:39:02;;;;;;;2.40;1.50;;;;;;;;;;5072125;28;20222;-64
2021/05/04 05:41:28;;;;;;;1.77;1.00;;;;;;;;;;5088710;28;20175;-64
2021/05/04 05:43:54;;;;;;;1.40;1.30;;;;;;;;;;5088354;28;20187;-63
2021/05/04 05:46:20;;;;;;;2.20;1.20;;;;;;;;;;5070635;28;20514;-63
2021/05/04 05:48:46;;;;;;;1.43;1.13;;;;;;;;;;5079494;28;20176;-64
2021/05/04 05:51:13;;;;;;;1.67;1.10;;;;;;;;;;5090066;28;20183;-64
2021/05/04 05:53:39;;;;;;;1.10;1.00;;;;;;;;;;5087810;28;20176;-63
2021/05/04 05:56:06;;;;;;;1.87;1.27;;;;;;;;;;5088951;28;20172;-63
2021/05/04 05:58:32;;;;;;;1.77;1.17;;;;;;;;;;5089186;28;20186;-63
2021/05/04 06:00:58;;;;;;;2.50;1.30;;;;;;;;;;5069689;28;20191;-64
2021/05/04 06:03:25;;;;;;;3.13;1.17;;;;;;;;;;5090295;28;20184;-64
2021/05/04 06:05:51;;;;;;;2.03;1.10;;;;;;;;;;5068924;28;20191;-64
2021/05/04 06:08:18;;;;;;;1.53;1.43;;;;;;;;;;5061741;28;20180;-63
2021/05/04 06:10:44;;;;;;;1.90;1.13;;;;;;;;;;5075756;28;20267;-63
2021/05/04 06:13:10;;;;;;;1.13;1.00;;;;;;;;;;5089262;28;20213;-63
2021/05/04 06:15:36;;;;;;;3.50;0.97;;;;;;;;;;5069826;28;20188;-63
2021/05/04 06:18:02;;;;;;;0.80;0.80;;;;;;;;;;5073931;28;20663;-66
2021/05/04 06:20:29;;;;;;;1.10;0.93;;;;;;;;;;5085194;28;20206;-65
2021/05/04 06:22:55;;;;;;;1.07;0.97;;;;;;;;;;5075309;28;20195;-66
2021/05/04 06:25:21;;;;;;;1.20;1.10;;;;;;;;;;5084473;28;20176;-64
2021/05/04 06:27:47;;;;;;;4.13;1.10;;;;;;;;;;5059805;28;20189;-64
2021/05/04 06:30:14;;;;;;;1.00;1.00;;;;;;;;;;5089163;28;20176;-63
2021/05/04 06:32:40;;;;;;;1.03;0.97;;;;;;;;;;5068463;28;20215;-63
2021/05/04 06:35:07;;;;;;;1.50;1.00;;;;;;;;;;5070756;28;20234;-64
2021/05/04 06:37:33;;;;;;;1.93;1.10;;;;;;;;;;5089715;28;20176;-63
2021/05/04 06:39:59;;;;;;;2.07;0.87;;;;;;;;;;5084612;28;20646;-64
2021/05/04 06:42:25;;;;;;;1.40;1.20;;;;;;;;;;5080201;28;20176;-64
2021/05/04 06:44:51;;;;;;;0.73;0.73;;;;;;;;;;5086046;28;20187;-63
2021/05/04 06:47:17;;;;;;;3.67;1.33;;;;;;;;;;5054495;28;20168;-63
2021/05/04 06:49:44;;;;;;;1.07;0.97;;;;;;;;;;5083327;28;20229;-63
2021/05/04 06:52:11;;;;;;;1.77;1.10;;;;;;;;;;5071110;28;20711;-64
2021/05/04 06:54:37;;;;;;;3.67;1.23;;;;;;;;;;5088463;28;20179;-64
2021/05/04 06:57:03;;;;;;;1.50;1.10;;;;;;;;;;5068154;28;20173;-63
2021/05/04 06:59:29;;;;;;;1.23;1.00;;;;;;;;;;5068673;28;20199;-64
2021/05/04 07:01:56;;;;;;;1.50;1.40;;;;;;;;;;5074156;28;20171;-64
2021/05/04 07:04:22;;;;;;;1.17;1.07;;;;;;;;;;5068189;28;20176;-65
2021/05/04 07:06:48;;;;;;;1.97;1.10;;;;;;;;;;5081217;28;20181;-64
2021/05/04 07:09:14;;;;;;;2.10;1.20;;;;;;;;;;5085124;28;20538;-66
2021/05/04 07:11:40;;;;;;;2.57;1.00;;;;;;;;;;5072782;28;20171;-63
2021/05/04 07:14:06;;;;;;;1.30;1.00;;;;;;;;;;5086107;28;20194;-66
2021/05/04 07:16:32;;;;;;;1.97;1.37;;;;;;;;;;5087204;28;20232;-64
2021/05/04 07:18:59;;;;;;;1.37;1.03;;;;;;;;;;5091060;28;20183;-63
2021/05/04 07:21:25;;;;;;;1.30;1.20;;;;;;;;;;5083263;28;20590;-63
2021/05/04 07:23:51;;;;;;;1.90;1.13;;;;;;;;;;5087145;28;20259;-63
2021/05/04 07:26:17;;;;;;;2.50;1.30;;;;;;;;;;5076308;28;20184;-63
2021/05/04 07:28:44;;;;;;;1.53;1.20;;;;;;;;;;5086266;28;20241;-63
2021/05/04 07:31:11;;;;;;;2.07;1.17;;;;;;;;;;5067591;28;20540;-63
2021/05/04 07:33:37;;;;;;;1.30;1.20;;;;;;;;;;5067957;28;20180;-63
2021/05/04 07:36:03;;;;;;;5.33;1.50;;;;;;;;;;5084494;28;20214;-62
2021/05/04 07:38:29;;;;;;;1.37;1.07;;;;;;;;;;5080876;28;20180;-63
2021/05/04 07:40:55;;;;;;;0.80;0.80;;;;;;;;;;5076086;28;20294;-65
2021/05/04 07:43:22;;;;;;;1.37;1.23;;;;;;;;;;5061780;28;20204;-63
2021/05/04 07:45:48;;;;;;;0.80;0.80;;;;;;;;;;5065277;28;20176;-63
2021/05/04 07:48:16;;;;;;;1.30;1.10;;;;;;;;;;5059099;28;20217;-64
2021/05/04 07:50:42;;;;;;;1.13;1.03;;;;;;;;;;5086093;28;20200;-63
2021/05/04 07:53:08;;;;;;;1.20;1.10;;;;;;;;;;5082669;28;20183;-63
2021/05/04 07:55:34;;;;;;;2.30;1.00;;;;;;;;;;5072529;28;20175;-63
2021/05/04 07:58:00;;;;;;;1.70;0.83;;;;;;;;;;5087226;28;20190;-63
2021/05/04 08:00:26;;;;;;;1.30;1.20;;;;;;;;;;5091174;28;20195;-63
2021/05/04 08:02:52;;;;;;;0.97;0.90;;;;;;;;;;5072174;28;20187;-63
2021/05/04 08:05:19;;;;;;;1.20;0.90;;;;;;;;;;5078373;28;20638;-63
2021/05/04 08:07:45;;;;;;;1.20;1.00;;;;;;;;;;5097908;28;20603;-63
2021/05/04 08:10:11;;;;;;;1.60;1.10;;;;;;;;;;5071702;28;20255;-63
2021/05/04 08:12:37;;;;;;;1.10;1.00;;;;;;;;;;5071120;28;20187;-63
2021/05/04 08:15:11;;;;;;;2.67;0.90;;;;;;;;;;5072358;28;20172;-62
2021/05/04 08:17:39;;;;;;;1.40;1.10;;;;;;;;;;5091164;28;20159;-62
2021/05/04 08:20:05;;;;;;;1.17;1.03;;;;;;;;;;5071612;28;20264;-63
2021/05/04 08:22:31;;;;;;;1.27;1.10;;;;;;;;;;5091245;28;20171;-64
2021/05/04 08:25:00;;;;;;;1.43;1.07;;;;;;;;;;5089666;28;20172;-64
2021/05/04 08:27:26;;;;;;;2.50;1.03;;;;;;;;;;5091232;28;20179;-63
2021/05/04 08:29:52;;;;;;;1.27;1.17;;;;;;;;;;5090133;28;20217;-63
2021/05/04 08:32:18;;;;;;;2.13;1.20;;;;;;;;;;5091018;28;20503;-63
2021/05/04 08:34:44;;;;;;;2.03;1.10;;;;;;;;;;5069585;28;20214;-63
2021/05/04 08:37:10;;;;;;;1.50;0.90;;;;;;;;;;5087412;28;20180;-63
2021/05/04 08:39:36;;;;;;;3.50;1.23;;;;;;;;;;5086294;28;20195;-64
2021/05/04 08:42:02;;;;;;;1.10;1.00;;;;;;;;;;5090816;28;20652;-63
2021/05/04 08:44:28;;;;;;;1.37;0.90;;;;;;;;;;5085238;28;20187;-63
2021/05/04 08:46:55;;;;;;;1.13;0.93;;;;;;;;;;5082024;28;20650;-63
2021/05/04 08:49:21;;;;;;;4.43;1.57;;;;;;;;;;5065486;28;20235;-64
2021/05/04 08:51:48;;;;;;;1.20;1.10;;;;;;;;;;5089042;28;20180;-63
2021/05/04 08:54:16;;;;;;;1.80;1.00;;;;;;;;;;5071507;28;20187;-64
2021/05/04 08:56:42;;;;;;;1.70;1.50;;;;;;;;;;5079019;28;20184;-64
2021/05/04 08:59:09;;;;;;;1.63;1.13;;;;;;;;;;5073208;28;20231;-64
2021/05/04 09:01:35;;;;;;;1.33;1.10;;;;;;;;;;5071522;28;20530;-63
2021/05/04 09:04:10;;;;;;;1.13;1.10;;;;;;;;;;5087516;28;20175;-64
2021/05/04 09:06:40;;;;;;;1.00;0.90;;;;;;;;;;5059255;28;20182;-64
2021/05/04 09:09:13;;;;;;;1.20;1.10;;;;;;;;;;5085320;28;20530;-63
2021/05/04 09:11:50;;;;;;;1.53;1.30;;;;;;;;;;5089089;28;20187;-64
2021/05/04 09:17:13;;;;;;;2.17;1.00;;;;;;;;;;5078432;28;20685;-64
2021/05/04 09:22:34;;;;;;;1.50;1.40;;;;;;;;;;5081928;28;20191;-63
2021/05/04 09:25:00;;;;;;;2.40;1.40;;;;;;;;;;5086398;28;20175;-63
2021/05/04 09:27:26;;;;;;;1.17;1.07;;;;;;;;;;5086251;28;20180;-63
2021/05/04 09:29:58;;;;;;;3.60;0.80;;;;;;;;;;5076689;28;20187;-65
2021/05/04 09:32:27;;;;;;;1.27;1.17;;;;;;;;;;5060394;28;20202;-63
2021/05/04 09:35:01;;;;;;;3.93;1.73;;;;;;;;;;5072026;28;20743;-63
2021/05/04 09:37:38;;;;;;;1.83;1.27;;;;;;;;;;5088424;28;20218;-64
2021/05/04 09:40:17;;;;;;;2.87;1.30;;;;;;;;;;5078231;28;20552;-63
2021/05/04 09:42:43;;;;;;;1.20;1.10;;;;;;;;;;5070353;28;20168;-64
2021/05/04 09:45:21;;;;;;;4.37;1.20;;;;;;;;;;5074740;28;20298;-62
2021/05/04 09:47:47;;;;;;;2.33;1.47;;;;;;;;;;5077331;28;20193;-64
2021/05/04 09:50:13;;;;;;;2.10;1.00;;;;;;;;;;5082283;28;20196;-64
2021/05/04 09:52:49;;;;;;;2.73;1.27;;;;;;;;;;5051727;28;20176;-64
2021/05/04 09:55:17;;;;;;;4.70;1.60;;;;;;;;;;5070031;28;20179;-63
2021/05/04 09:57:49;;;;;;;4.03;1.50;;;;;;;;;;5071383;28;20184;-64
2021/05/04 10:00:21;;;;;;;2.10;1.23;;;;;;;;;;5079170;28;20200;-64
2021/05/04 10:02:48;;;;;;;2.83;1.10;;;;;;;;;;5085876;28;20206;-66
2021/05/04 10:05:17;;;;;;;3.00;1.20;;;;;;;;;;5084677;28;20653;-64
2021/05/04 10:07:43;;;;;;;1.97;1.10;;;;;;;;;;5080554;28;20172;-65
2021/05/04 10:10:10;;;;;;;2.63;1.07;;;;;;;;;;5060501;28;20520;-64
2021/05/04 10:12:36;;;;;;;1.50;1.40;;;;;;;;;;5068990;28;20176;-64
2021/05/04 10:15:07;;;;;;;4.17;1.70;;;;;;;;;;5075232;28;20194;-65
2021/05/04 10:17:34;;;;;;;2.67;1.40;;;;;;;;;;5091523;28;20177;-65
2021/05/04 10:20:09;;;;;;;4.73;1.60;;;;;;;;;;5084021;28;20202;-64
2021/05/04 10:22:36;;;;;;;2.17;1.50;;;;;;;;;;5086633;28;20221;-65
2021/05/04 10:25:03;;;;;;;2.20;1.13;;;;;;;;;;5056203;28;20192;-64
2021/05/04 10:27:29;;;;;;;5.37;1.80;;;;;;;;;;5059780;28;20550;-65
2021/05/04 10:29:56;;;;;;;1.87;1.33;;;;;;;;;;5083261;28;20199;-65
2021/05/04 10:32:40;;;;;;;4.47;1.60;;;;;;;;;;5085655;28;20275;-65
2021/05/04 10:35:25;;;;;;;4.70;1.83;;;;;;;;;;5063278;28;20223;-64
2021/05/04 10:37:55;;;;;;;4.20;1.67;;;;;;;;;;5091119;28;20180;-65
2021/05/04 10:40:22;;;;;;;7.33;1.63;;;;;;;;;;5089568;28;20239;-64
2021/05/04 10:42:48;;;;;;;4.00;1.50;;;;;;;;;;5084579;28;20176;-67
2021/05/04 10:45:14;;;;;;;3.10;1.73;;;;;;;;;;5074962;28;20706;-64
2021/05/04 10:47:44;;;;;;;6.57;3.63;;;;;;;;;;5074565;28;20188;-64
2021/05/04 10:50:17;;;;;;;4.82;1.83;;;;;;;;;;5092469;28;20417;-64
2021/05/04 10:52:57;;;;;;;5.50;1.93;;;;;;;;;;5075394;28;20171;-67
2021/05/04 10:55:25;;;;;;;4.10;1.80;;;;;;;;;;5072032;28;20225;-66
2021/05/04 10:58:03;;;;;;;6.13;2.63;;;;;;;;;;5077716;28;20265;-64
2021/05/04 11:00:47;;;;;;;5.80;1.50;;;;;;;;;;5085545;28;20829;-65
2021/05/04 11:06:02;;;;;;;8.83;2.37;;;;;;;;;;5086407;28;20532;-65
2021/05/04 11:08:43;;;;;;;7.07;2.53;;;;;;;;;;5073009;28;20175;-64
2021/05/04 11:11:19;;;;;;;13.30;4.53;;;;;;;;;;5081785;28;20539;-65
2021/05/04 11:13:46;;;;;;;3.33;2.13;;;;;;;;;;5084276;28;20530;-65
2021/05/04 11:16:30;;;;;;;9.37;2.40;;;;;;;;;;5091161;28;20228;-64
2021/05/04 11:19:18;;;;;;;5.57;2.07;;;;;;;;;;5091800;28;20184;-65
2021/05/04 11:22:05;;;;;;;9.07;2.27;;;;;;;;;;5091761;28;20236;-64
2021/05/04 11:24:34;;;;;;;4.57;2.10;;;;;;;;;;5086744;28;20658;-64
2021/05/04 11:27:06;;;;;;;5.73;2.23;;;;;;;;;;5083973;28;20302;-64
2021/05/04 11:29:33;;;;;;;6.20;1.93;;;;;;;;;;5072394;28;20176;-63
2021/05/04 11:32:09;;;;;;;6.70;2.30;;;;;;;;;;5086791;28;20189;-63
2021/05/04 11:34:42;;;;;;;4.97;2.00;;;;;;;;;;5086184;28;20226;-65
2021/05/04 11:37:11;;;;;;;3.80;1.70;;;;;;;;;;5070400;28;20639;-65
2021/05/04 11:39:53;;;;;;;7.50;2.30;;;;;;;;;;5070634;28;20682;-63
2021/05/04 11:42:19;;;;;;;6.60;2.33;;;;;;;;;;5072282;28;20172;-64
2021/05/04 11:44:46;;;;;;;9.83;2.07;;;;;;;;;;5091620;28;20627;-64
2021/05/04 11:47:27;;;;;;;4.60;2.23;;;;;;;;;;5085900;28;20276;-64
2021/05/04 11:50:07;;;;;;;8.53;2.97;;;;;;;;;;5089912;28;20249;-63
2021/05/04 11:52:34;;;;;;;7.37;2.93;;;;;;;;;;5091553;28;20179;-64
2021/05/04 11:55:04;;;;;;;5.30;2.30;;;;;;;;;;5090409;28;20186;-64
2021/05/04 11:57:30;;;;;;;5.60;2.27;;;;;;;;;;5090643;28;20313;-64
2021/05/04 11:59:56;;;;;;;6.77;2.40;;;;;;;;;;5070082;28;20286;-63
2021/05/04 12:02:29;;;;;;;5.07;2.30;;;;;;;;;;5090688;28;20329;-63
2021/05/04 12:04:55;;;;;;;7.00;2.60;;;;;;;;;;5082990;28;20180;-63
2021/05/04 12:07:34;;;;;;;6.87;2.47;;;;;;;;;;5073608;28;20188;-63
2021/05/04 12:10:00;;;;;;;7.13;2.90;;;;;;;;;;5076852;28;20188;-64
2021/05/04 12:12:47;;;;;;;7.33;3.20;;;;;;;;;;5070587;28;20176;-63
2021/05/04 12:15:13;;;;;;;7.97;3.30;;;;;;;;;;5047687;28;20244;-62
2021/05/04 12:17:40;;;;;;;10.07;3.30;;;;;;;;;;5072020;28;20278;-64
2021/05/04 12:20:10;;;;;;;8.67;3.43;;;;;;;;;;5090016;28;20653;-63
2021/05/04 12:22:46;;;;;;;5.80;3.13;;;;;;;;;;5081325;28;20172;-63
2021/05/04 12:25:13;;;;;;;7.03;3.10;;;;;;;;;;5069909;28;20183;-62
2021/05/04 12:27:39;;;;;;;8.20;2.80;;;;;;;;;;5078962;28;20179;-64
2021/05/04 12:30:08;;;;;;;10.03;2.67;;;;;;;;;;5089303;28;20626;-64
2021/05/04 12:32:34;;;;;;;5.50;2.63;;;;;;;;;;5090969;28;20258;-63
2021/05/04 12:35:15;;;;;;;6.63;2.60;;;;;;;;;;5089737;28;20250;-64
2021/05/04 12:37:41;;;;;;;7.33;2.60;;;;;;;;;;5090283;28;20618;-63
2021/05/04 12:40:15;;;;;;;4.43;2.73;;;;;;;;;;5070796;28;20558;-63
2021/05/04 12:42:41;;;;;;;6.80;2.50;;;;;;;;;;5090732;28;20175;-63
2021/05/04 12:45:08;;;;;;;7.17;3.00;;;;;;;;;;5071088;28;20179;-63
2021/05/04 12:47:34;;;;;;;5.57;2.30;;;;;;;;;;5070510;28;20172;-63
2021/05/04 12:50:00;;;;;;;7.27;2.13;;;;;;;;;;5088813;28;20200;-63
2021/05/04 12:52:26;;;;;;;5.90;2.40;;;;;;;;;;5089950;28;20245;-63
2021/05/04 12:54:52;;;;;;;5.57;2.53;;;;;;;;;;5081725;28;20183;-62
2021/05/04 12:57:18;;;;;;;6.10;2.30;;;;;;;;;;5082820;28;20537;-63
2021/05/04 12:59:44;;;;;;;9.90;2.20;;;;;;;;;;5054001;28;20560;-63
2021/05/04 13:02:20;;;;;;;7.70;2.30;;;;;;;;;;5072230;28;20254;-65
2021/05/04 13:05:07;;;;;;;5.77;3.13;;;;;;;;;;5089052;28;20175;-64
2021/05/04 13:07:49;;;;;;;3.20;1.80;;;;;;;;;;5062199;28;20175;-63
2021/05/04 13:10:32;;;;;;;5.80;2.20;;;;;;;;;;5068520;28;20164;-62
2021/05/04 13:21:38;;;;;;;5.00;2.63;;;;;;;;;;5090515;28;20264;-63
2021/05/04 13:29:55;;;;;;;10.90;4.83;;;;;;;;;;5030836;28;20190;-63
2021/05/04 13:32:23;;;;;;;10.77;4.10;;;;;;;;;;5080839;28;20639;-62
2021/05/04 13:37:20;;;;;;;6.40;3.47;;;;;;;;;;5077108;28;20568;-63
2021/05/04 13:48:13;;;;;;;7.80;2.77;;;;;;;;;;5092289;28;20214;-62
2021/05/04 13:50:39;;;;;;;5.90;3.20;;;;;;;;;;5091586;28;20210;-62
2021/05/04 13:53:06;;;;;;;6.30;3.27;;;;;;;;;;5075312;28;20765;-62
2021/05/04 13:55:32;;;;;;;8.77;3.13;;;;;;;;;;5063511;28;20327;-62
2021/05/04 13:57:59;;;;;;;7.07;3.03;;;;;;;;;;5076154;28;20812;-65
2021/05/04 14:00:33;;;;;;;5.43;2.90;;;;;;;;;;5076062;28;20540;-63
2021/05/04 14:25:07;;;;;;;2.87;1.90;;;;;;;;;;5080384;28;20163;-62
2021/05/04 14:27:26;;;;;;;5.60;2.03;;;;;;;;;;5090057;28;20232;-64
2021/05/04 14:29:52;;;;;;;4.47;2.20;;;;;;;;;;5072741;28;20183;-62
2021/05/04 14:32:18;;;;;;;8.87;2.40;;;;;;;;;;5080537;28;20534;-62
2021/05/04 14:34:45;;;;;;;8.20;2.57;;;;;;;;;;5091675;28;20219;-62
2021/05/04 14:37:20;;;;;;;7.63;2.70;;;;;;;;;;5063893;28;20627;-62
2021/05/04 14:43:00;;;;;;;4.60;1.83;;;;;;;;;;5089257;28;20705;-63
2021/05/04 14:58:54;;;;;;;3.63;1.47;;;;;;;;;;5089849;28;20182;-62
2021/05/04 15:03:56;;;;;;;8.00;1.83;;;;;;;;;;5089676;28;20180;-63
2021/05/04 15:06:22;;;;;;;7.93;2.27;;;;;;;;;;5089915;28;20203;-62
2021/05/04 15:08:48;;;;;;;8.90;2.37;;;;;;;;;;5086475;28;20215;-63
2021/05/04 15:11:15;;;;;;;6.13;1.80;;;;;;;;;;5089946;28;20186;-62
2021/05/04 15:13:43;;;;;;;2.73;1.40;;;;;;;;;;5084410;28;20256;-62
2021/05/04 15:21:34;;;;;;;2.67;1.40;;;;;;;;;;5089733;28;20211;-63
2021/05/04 15:24:00;;;;;;;1.97;1.27;;;;;;;;;;5069026;28;20179;-62
2021/05/04 15:26:26;;;;;;;7.50;1.63;;;;;;;;;;5065485;28;20912;-63
2021/05/04 15:28:52;;;;;;;1.80;1.00;;;;;;;;;;5066433;28;20666;-61
2021/05/04 15:31:22;;;;;;;2.90;1.23;;;;;;;;;;5079502;28;20172;-62
2021/05/04 15:33:48;;;;;;;2.97;1.80;;;;;;;;;;5092042;28;20186;-62
2021/05/04 15:36:15;;;;;;;3.43;1.60;;;;;;;;;;5083646;28;20303;-62
2021/05/04 15:38:42;;;;;;;1.80;1.30;;;;;;;;;;5085611;28;20176;-63
2021/05/04 15:41:08;;;;;;;4.43;1.67;;;;;;;;;;5072483;28;20318;-62
2021/05/04 15:43:34;;;;;;;3.87;1.43;;;;;;;;;;5087494;28;20180;-62
2021/05/04 15:46:12;;;;;;;4.20;1.50;;;;;;;;;;5084859;28;20186;-62
2021/05/04 16:07:27;;;;;;;17.93;2.03;;;;;;;;;;5037302;28;20172;-59
2021/05/04 16:09:53;;;;;;;4.68;1.73;;;;;;;;;;5083205;28;20757;-62
2021/05/04 16:12:25;;;;;;;7.90;4.10;;;;;;;;;;5088593;28;20209;-63
2021/05/04 16:14:51;;;;;;;18.60;16.57;;;;;;;;;;5081374;28;20901;-62
2021/05/04 16:17:17;;;;;;;12.37;11.17;;;;;;;;;;5088105;28;20183;-63
2021/05/04 16:19:45;;;;;;;10.40;9.23;;;;;;;;;;5085668;28;20253;-61
2021/05/04 16:22:31;;;;;;;15.27;10.80;;;;;;;;;;5064082;28;20180;-63
2021/05/04 16:25:02;;;;;;;8.53;7.33;;;;;;;;;;5088276;28;20191;-63